createdAt,value
2017-04-08T00:00:27.530Z,0
2017-04-08T00:01:08.419Z,0
2017-04-08T00:01:49.300Z,0
2017-04-08T00:02:30.182Z,0
2017-04-08T00:03:11.066Z,0
2017-04-08T00:03:51.950Z,0
2017-04-08T00:04:32.845Z,0
2017-04-08T00:05:13.721Z,0
2017-04-08T00:05:54.602Z,0
2017-04-08T00:06:35.487Z,0
2017-04-08T00:07:16.366Z,0
2017-04-08T00:07:57.249Z,0
2017-04-08T00:08:38.132Z,0
2017-04-08T00:09:19.018Z,0
2017-04-08T00:09:59.903Z,0
2017-04-08T00:10:40.783Z,0
2017-04-08T00:11:21.668Z,0
2017-04-08T00:12:02.574Z,0
2017-04-08T00:12:43.428Z,0
2017-04-08T00:13:24.313Z,0
2017-04-08T00:14:05.185Z,0
2017-04-08T00:14:46.073Z,0
2017-04-08T00:15:26.954Z,0
2017-04-08T00:16:07.827Z,0
2017-04-08T00:16:48.736Z,0
2017-04-08T00:17:29.614Z,0
2017-04-08T00:18:10.494Z,0
2017-04-08T00:18:51.371Z,0
2017-04-08T00:19:32.254Z,0
2017-04-08T00:20:13.133Z,0
2017-04-08T00:20:54.033Z,0
2017-04-08T00:21:34.917Z,0
2017-04-08T00:22:15.798Z,0
2017-04-08T00:22:56.685Z,0
2017-04-08T00:23:37.564Z,0
2017-04-08T00:24:18.485Z,0
2017-04-08T00:24:59.366Z,0
2017-04-08T00:25:40.244Z,0
2017-04-08T00:26:21.123Z,0
2017-04-08T00:27:02.009Z,0
2017-04-08T00:27:42.895Z,0
2017-04-08T00:28:23.781Z,0
2017-04-08T00:29:04.691Z,0
2017-04-08T00:29:45.544Z,0
2017-04-08T00:30:26.429Z,0
2017-04-08T00:31:07.314Z,0
2017-04-08T00:31:48.199Z,0
2017-04-08T00:32:29.072Z,0
2017-04-08T00:33:09.960Z,0
2017-04-08T00:33:50.846Z,0
2017-04-08T00:34:31.729Z,0
2017-04-08T00:35:12.610Z,0
2017-04-08T00:35:53.494Z,0
2017-04-08T00:36:34.379Z,0
2017-04-08T00:37:15.262Z,0
2017-04-08T00:37:56.142Z,0
2017-04-08T00:38:37.031Z,0
2017-04-08T00:39:17.908Z,0
2017-04-08T00:39:58.787Z,0
2017-04-08T00:40:39.672Z,0
2017-04-08T00:41:20.559Z,0
2017-04-08T00:42:01.443Z,0
2017-04-08T00:42:42.329Z,0
2017-04-08T00:43:23.212Z,0
2017-04-08T00:44:04.094Z,0
2017-04-08T00:44:44.981Z,0
2017-04-08T00:45:25.866Z,0
2017-04-08T00:46:06.746Z,0
2017-04-08T00:46:47.629Z,0
2017-04-08T00:47:28.501Z,0
2017-04-08T00:48:09.426Z,0
2017-04-08T00:48:50.308Z,0
2017-04-08T00:49:31.198Z,0
2017-04-08T00:50:12.072Z,0
2017-04-08T00:50:52.959Z,0
2017-04-08T00:51:33.838Z,0
2017-04-08T00:52:14.734Z,0
2017-04-08T00:52:55.626Z,0
2017-04-08T00:53:36.508Z,0
2017-04-08T00:54:17.387Z,0
2017-04-08T00:54:58.272Z,0
2017-04-08T00:55:39.155Z,0
2017-04-08T00:56:20.038Z,0
2017-04-08T00:57:00.919Z,0
2017-04-08T00:57:41.806Z,0
2017-04-08T00:58:22.697Z,0
2017-04-08T00:59:03.577Z,0
2017-04-08T00:59:44.454Z,0
2017-04-08T01:00:25.360Z,0
2017-04-08T01:01:06.231Z,0
2017-04-08T01:01:47.114Z,0
2017-04-08T01:02:28.005Z,0
2017-04-08T01:03:08.879Z,0
2017-04-08T01:03:49.776Z,0
2017-04-08T01:04:30.660Z,0
2017-04-08T01:05:11.542Z,0
2017-04-08T01:05:52.419Z,0
2017-04-08T01:06:33.300Z,0
2017-04-08T01:07:14.175Z,0
2017-04-08T01:07:55.059Z,0
2017-04-08T01:08:35.941Z,0
2017-04-08T01:09:16.822Z,0
2017-04-08T01:09:57.705Z,0
2017-04-08T01:10:38.587Z,0
2017-04-08T01:11:19.479Z,0
2017-04-08T01:12:00.357Z,0
2017-04-08T01:12:41.244Z,0
2017-04-08T01:13:22.126Z,0
2017-04-08T01:14:03.019Z,0
2017-04-08T01:14:43.889Z,0
2017-04-08T01:15:24.771Z,0
2017-04-08T01:16:05.639Z,0
2017-04-08T01:16:46.516Z,0
2017-04-08T01:17:27.381Z,0
2017-04-08T01:18:08.257Z,0
2017-04-08T01:18:49.137Z,0
2017-04-08T01:19:30.019Z,0
2017-04-08T01:20:10.900Z,0
2017-04-08T01:20:51.781Z,0
2017-04-08T01:21:32.673Z,0
2017-04-08T01:22:13.559Z,0
2017-04-08T01:22:54.446Z,0
2017-04-08T01:23:35.324Z,0
2017-04-08T01:24:16.206Z,0
2017-04-08T01:24:57.094Z,0
2017-04-08T01:25:37.974Z,0
2017-04-08T01:26:18.861Z,0
2017-04-08T01:26:59.742Z,0
2017-04-08T01:27:40.625Z,0
2017-04-08T01:28:21.507Z,0
2017-04-08T01:29:02.389Z,0
2017-04-08T01:29:43.261Z,0
2017-04-08T01:30:24.140Z,0
2017-04-08T01:31:05.020Z,0
2017-04-08T01:31:45.904Z,0
2017-04-08T01:32:26.785Z,0
2017-04-08T01:33:07.671Z,0
2017-04-08T01:33:48.551Z,0
2017-04-08T01:34:29.437Z,0
2017-04-08T01:35:10.346Z,0
2017-04-08T01:35:51.229Z,0
2017-04-08T01:36:32.107Z,0
2017-04-08T01:37:12.992Z,0
2017-04-08T01:37:53.872Z,0
2017-04-08T01:38:34.760Z,0
2017-04-08T01:39:15.663Z,0
2017-04-08T01:39:56.557Z,0
2017-04-08T01:40:37.427Z,0
2017-04-08T01:41:18.308Z,0
2017-04-08T01:41:59.191Z,0
2017-04-08T01:42:40.073Z,0
2017-04-08T01:43:20.957Z,0
2017-04-08T01:44:01.844Z,0
2017-04-08T01:44:42.723Z,0
2017-04-08T01:45:23.603Z,0
2017-04-08T01:46:04.493Z,0
2017-04-08T01:46:45.371Z,0
2017-04-08T01:47:26.250Z,0
2017-04-08T01:48:07.124Z,0
2017-04-08T01:48:48.006Z,0
2017-04-08T01:49:28.889Z,0
2017-04-08T01:50:09.774Z,0
2017-04-08T01:50:50.656Z,0
2017-04-08T01:51:31.541Z,0
2017-04-08T01:52:12.424Z,0
2017-04-08T01:52:53.306Z,0
2017-04-08T01:53:34.190Z,0
2017-04-08T01:54:15.127Z,0
2017-04-08T01:54:56.006Z,0
2017-04-08T01:55:36.888Z,0
2017-04-08T01:56:17.770Z,0
2017-04-08T01:56:58.639Z,0
2017-04-08T01:57:39.518Z,0
2017-04-08T01:58:20.399Z,0
2017-04-08T01:59:01.284Z,0
2017-04-08T01:59:42.165Z,0
2017-04-08T02:00:23.045Z,0
2017-04-08T02:01:03.929Z,0
2017-04-08T02:01:44.814Z,0
2017-04-08T02:02:25.701Z,0
2017-04-08T02:03:06.581Z,0
2017-04-08T02:03:47.464Z,0
2017-04-08T02:04:28.348Z,0
2017-04-08T02:05:09.235Z,0
2017-04-08T02:05:50.118Z,0
2017-04-08T02:06:30.998Z,0
2017-04-08T02:07:11.882Z,0
2017-04-08T02:07:52.768Z,0
2017-04-08T02:08:33.644Z,0
2017-04-08T02:09:14.528Z,0
2017-04-08T02:09:55.415Z,0
2017-04-08T02:10:36.294Z,0
2017-04-08T02:11:17.175Z,0
2017-04-08T02:11:58.057Z,0
2017-04-08T02:12:38.938Z,0
2017-04-08T02:13:19.835Z,0
2017-04-08T02:14:00.716Z,0
2017-04-08T02:14:41.598Z,0
2017-04-08T02:15:22.507Z,0
2017-04-08T02:16:03.362Z,0
2017-04-08T02:16:44.244Z,0
2017-04-08T02:17:25.129Z,0
2017-04-08T02:18:06.010Z,0
2017-04-08T02:18:46.895Z,0
2017-04-08T02:19:27.780Z,0
2017-04-08T02:20:08.662Z,0
2017-04-08T02:20:49.548Z,0
2017-04-08T02:21:30.433Z,0
2017-04-08T02:22:11.309Z,0
2017-04-08T02:22:52.196Z,0
2017-04-08T02:23:33.082Z,0
2017-04-08T02:24:13.964Z,0
2017-04-08T02:24:54.848Z,0
2017-04-08T02:25:35.728Z,0
2017-04-08T02:26:16.619Z,0
2017-04-08T02:26:57.509Z,0
2017-04-08T02:27:38.406Z,0
2017-04-08T02:28:19.295Z,0
2017-04-08T02:29:00.187Z,0
2017-04-08T02:29:41.069Z,0
2017-04-08T02:30:21.955Z,0
2017-04-08T02:31:02.846Z,0
2017-04-08T02:31:43.732Z,0
2017-04-08T02:32:24.620Z,0
2017-04-08T02:33:05.505Z,0
2017-04-08T02:33:46.392Z,0
2017-04-08T02:34:27.274Z,0
2017-04-08T02:35:08.185Z,0
2017-04-08T02:35:49.050Z,0
2017-04-08T02:36:29.929Z,0
2017-04-08T02:37:10.813Z,0
2017-04-08T02:37:51.716Z,0
2017-04-08T02:38:32.609Z,0
2017-04-08T02:39:13.493Z,0
2017-04-08T02:39:54.375Z,0
2017-04-08T02:40:35.248Z,0
2017-04-08T02:41:16.129Z,0
2017-04-08T02:41:57.014Z,0
2017-04-08T02:42:37.891Z,0
2017-04-08T02:43:18.775Z,0
2017-04-08T02:43:59.664Z,0
2017-04-08T02:44:40.544Z,0
2017-04-08T02:45:21.431Z,0
2017-04-08T02:46:02.310Z,0
2017-04-08T02:46:43.192Z,0
2017-04-08T02:47:24.077Z,0
2017-04-08T02:48:04.959Z,0
2017-04-08T02:48:45.844Z,0
2017-04-08T02:49:26.732Z,0
2017-04-08T02:50:07.613Z,0
2017-04-08T02:50:48.491Z,0
2017-04-08T02:51:29.375Z,0
2017-04-08T02:52:10.259Z,0
2017-04-08T02:52:51.142Z,0
2017-04-08T02:53:32.022Z,0
2017-04-08T02:54:12.909Z,0
2017-04-08T02:54:53.794Z,0
2017-04-08T02:55:34.701Z,0
2017-04-08T02:56:15.585Z,0
2017-04-08T02:56:56.470Z,0
2017-04-08T02:57:37.353Z,0
2017-04-08T02:58:18.237Z,0
2017-04-08T02:58:59.116Z,0
2017-04-08T02:59:39.997Z,0
2017-04-08T03:00:20.875Z,0
2017-04-08T03:01:01.749Z,0
2017-04-08T03:01:42.636Z,0
2017-04-08T03:02:23.524Z,0
2017-04-08T03:03:04.405Z,0
2017-04-08T03:03:45.282Z,0
2017-04-08T03:04:26.184Z,0
2017-04-08T03:05:07.072Z,0
2017-04-08T03:05:47.954Z,0
2017-04-08T03:06:28.839Z,0
2017-04-08T03:07:09.723Z,0
2017-04-08T03:07:50.607Z,0
2017-04-08T03:08:31.537Z,0
2017-04-08T03:09:12.414Z,0
2017-04-08T03:09:53.292Z,0
2017-04-08T03:10:34.182Z,0
2017-04-08T03:11:15.066Z,0
2017-04-08T03:11:55.952Z,0
2017-04-08T03:12:36.836Z,0
2017-04-08T03:13:17.737Z,0
2017-04-08T03:13:58.625Z,0
2017-04-08T03:14:39.506Z,0
2017-04-08T03:15:20.384Z,0
2017-04-08T03:16:01.273Z,0
2017-04-08T03:16:42.155Z,0
2017-04-08T03:17:23.043Z,0
2017-04-08T03:18:03.912Z,0
2017-04-08T03:18:44.793Z,0
2017-04-08T03:19:25.679Z,0
2017-04-08T03:20:06.558Z,0
2017-04-08T03:20:47.438Z,0
2017-04-08T03:21:28.320Z,0
2017-04-08T03:22:09.201Z,0
2017-04-08T03:22:50.086Z,0
2017-04-08T03:23:30.973Z,0
2017-04-08T03:24:11.851Z,0
2017-04-08T03:24:52.732Z,0
2017-04-08T03:25:33.621Z,0
2017-04-08T03:26:14.500Z,0
2017-04-08T03:26:55.384Z,0
2017-04-08T03:27:36.269Z,0
2017-04-08T03:28:17.151Z,0
2017-04-08T03:28:58.061Z,0
2017-04-08T03:29:38.943Z,0
2017-04-08T03:30:19.823Z,0
2017-04-08T03:31:00.703Z,0
2017-04-08T03:31:41.575Z,0
2017-04-08T03:32:22.453Z,0
2017-04-08T03:33:03.339Z,0
2017-04-08T03:33:44.226Z,0
2017-04-08T03:34:25.106Z,0
2017-04-08T03:35:05.988Z,0
2017-04-08T03:35:46.899Z,0
2017-04-08T03:36:27.757Z,0
2017-04-08T03:37:08.640Z,0
2017-04-08T03:37:49.520Z,0
2017-04-08T03:38:30.398Z,0
2017-04-08T03:39:11.289Z,0
2017-04-08T03:39:52.172Z,0
2017-04-08T03:40:33.053Z,0
2017-04-08T03:41:13.938Z,0
2017-04-08T03:41:54.826Z,0
2017-04-08T03:42:35.707Z,0
2017-04-08T03:43:16.586Z,0
2017-04-08T03:43:57.467Z,0
2017-04-08T03:44:38.353Z,0
2017-04-08T03:45:19.236Z,0
2017-04-08T03:46:00.116Z,0
2017-04-08T03:46:41.000Z,0
2017-04-08T03:47:21.887Z,0
2017-04-08T03:48:02.803Z,0
2017-04-08T03:48:43.656Z,0
2017-04-08T03:49:24.539Z,0
2017-04-08T03:50:05.424Z,0
2017-04-08T03:50:46.306Z,0
2017-04-08T03:51:27.184Z,0
2017-04-08T03:52:08.069Z,0
2017-04-08T03:52:48.949Z,0
2017-04-08T03:53:29.830Z,0
2017-04-08T03:54:10.714Z,0
2017-04-08T03:54:51.607Z,0
2017-04-08T03:55:32.485Z,0
2017-04-08T03:56:13.367Z,0
2017-04-08T03:56:54.248Z,0
2017-04-08T03:57:35.135Z,0
2017-04-08T03:58:16.019Z,0
2017-04-08T03:58:56.897Z,0
2017-04-08T03:59:37.782Z,0
2017-04-08T04:00:18.668Z,0
2017-04-08T04:00:59.555Z,0
2017-04-08T04:01:40.427Z,0
2017-04-08T04:02:21.305Z,0
2017-04-08T04:03:02.190Z,0
2017-04-08T04:03:43.080Z,0
2017-04-08T04:04:23.964Z,0
2017-04-08T04:05:04.832Z,0
2017-04-08T04:05:45.717Z,0
2017-04-08T04:06:26.602Z,0
2017-04-08T04:07:07.479Z,0
2017-04-08T04:07:48.365Z,0
2017-04-08T04:08:29.243Z,0
2017-04-08T04:09:10.124Z,0
2017-04-08T04:09:51.010Z,0
2017-04-08T04:10:31.890Z,0
2017-04-08T04:11:12.772Z,0
2017-04-08T04:11:53.648Z,0
2017-04-08T04:12:34.525Z,0
2017-04-08T04:13:15.407Z,0
2017-04-08T04:13:56.287Z,0
2017-04-08T04:14:37.168Z,0
2017-04-08T04:15:18.050Z,0
2017-04-08T04:15:58.946Z,0
2017-04-08T04:16:39.821Z,0
2017-04-08T04:17:20.698Z,0
2017-04-08T04:18:01.581Z,0
2017-04-08T04:18:42.472Z,0
2017-04-08T04:19:23.353Z,0
2017-04-08T04:20:04.237Z,0
2017-04-08T04:20:45.117Z,0
2017-04-08T04:21:26.001Z,0
2017-04-08T04:22:06.880Z,0
2017-04-08T04:22:47.764Z,0
2017-04-08T04:23:28.647Z,0
2017-04-08T04:24:09.532Z,0
2017-04-08T04:24:50.415Z,0
2017-04-08T04:25:31.298Z,0
2017-04-08T04:26:12.181Z,0
2017-04-08T04:26:53.065Z,0
2017-04-08T04:27:33.945Z,0
2017-04-08T04:28:14.829Z,0
2017-04-08T04:28:55.713Z,0
2017-04-08T04:29:36.598Z,0
2017-04-08T04:30:17.481Z,0
2017-04-08T04:30:58.365Z,0
2017-04-08T04:31:39.250Z,0
2017-04-08T04:32:20.130Z,0
2017-04-08T04:33:01.011Z,0
2017-04-08T04:33:41.924Z,0
2017-04-08T04:34:22.780Z,0
2017-04-08T04:35:03.659Z,5
2017-04-08T04:35:44.553Z,5
2017-04-08T04:36:25.436Z,5
2017-04-08T04:37:06.316Z,5
2017-04-08T04:37:47.197Z,5
2017-04-08T04:38:28.079Z,5
2017-04-08T04:39:08.963Z,5
2017-04-08T04:39:49.846Z,5
2017-04-08T04:40:30.733Z,5
2017-04-08T04:41:11.620Z,5
2017-04-08T04:41:52.498Z,5
2017-04-08T04:42:33.380Z,5
2017-04-08T04:43:14.267Z,5
2017-04-08T04:43:55.149Z,5
2017-04-08T04:44:36.030Z,5
2017-04-08T04:45:16.933Z,10
2017-04-08T04:45:57.807Z,10
2017-04-08T04:46:38.687Z,10
2017-04-08T04:47:19.567Z,10
2017-04-08T04:48:00.448Z,10
2017-04-08T04:48:41.327Z,10
2017-04-08T04:49:22.208Z,10
2017-04-08T04:50:03.101Z,15
2017-04-08T04:50:43.982Z,15
2017-04-08T04:51:24.861Z,15
2017-04-08T04:52:05.773Z,15
2017-04-08T04:52:46.655Z,15
2017-04-08T04:53:27.541Z,20
2017-04-08T04:54:08.422Z,20
2017-04-08T04:54:49.304Z,20
2017-04-08T04:55:30.195Z,20
2017-04-08T04:56:11.079Z,15
2017-04-08T04:56:51.959Z,15
2017-04-08T04:57:32.844Z,15
2017-04-08T04:58:13.724Z,15
2017-04-08T04:58:54.633Z,20
2017-04-08T04:59:35.511Z,20
2017-04-08T05:00:16.398Z,25
2017-04-08T05:00:57.285Z,20
2017-04-08T05:01:38.169Z,15
2017-04-08T05:02:19.048Z,15
2017-04-08T05:02:59.933Z,15
2017-04-08T05:03:40.814Z,20
2017-04-08T05:04:21.693Z,20
2017-04-08T05:05:02.572Z,20
2017-04-08T05:05:43.484Z,20
2017-04-08T05:06:24.366Z,20
2017-04-08T05:07:05.247Z,25
2017-04-08T05:07:46.120Z,25
2017-04-08T05:08:27.004Z,20
2017-04-08T05:09:07.885Z,20
2017-04-08T05:09:48.767Z,25
2017-04-08T05:10:29.647Z,25
2017-04-08T05:11:10.519Z,25
2017-04-08T05:11:51.400Z,25
2017-04-08T05:12:32.308Z,30
2017-04-08T05:13:13.155Z,30
2017-04-08T05:13:54.039Z,30
2017-04-08T05:14:34.927Z,30
2017-04-08T05:15:15.806Z,30
2017-04-08T05:15:56.688Z,30
2017-04-08T05:16:37.570Z,30
2017-04-08T05:17:18.454Z,30
2017-04-08T05:17:59.343Z,35
2017-04-08T05:18:40.220Z,35
2017-04-08T05:19:21.098Z,35
2017-04-08T05:20:01.980Z,35
2017-04-08T05:20:42.865Z,35
2017-04-08T05:21:23.740Z,35
2017-04-08T05:22:04.619Z,35
2017-04-08T05:22:45.511Z,35
2017-04-08T05:23:26.396Z,35
2017-04-08T05:24:07.283Z,35
2017-04-08T05:24:48.161Z,40
2017-04-08T05:25:29.040Z,40
2017-04-08T05:26:09.919Z,40
2017-04-08T05:26:50.801Z,35
2017-04-08T05:27:31.681Z,35
2017-04-08T05:28:12.561Z,35
2017-04-08T05:28:53.447Z,35
2017-04-08T05:29:34.332Z,40
2017-04-08T05:30:15.236Z,45
2017-04-08T05:30:56.134Z,40
2017-04-08T05:31:37.013Z,40
2017-04-08T05:32:17.893Z,40
2017-04-08T05:32:58.772Z,40
2017-04-08T05:33:39.658Z,40
2017-04-08T05:34:20.537Z,40
2017-04-08T05:35:01.420Z,45
2017-04-08T05:35:42.303Z,40
2017-04-08T05:36:23.188Z,45
2017-04-08T05:37:04.067Z,45
2017-04-08T05:37:44.951Z,50
2017-04-08T05:38:25.838Z,50
2017-04-08T05:39:06.721Z,50
2017-04-08T05:39:47.605Z,50
2017-04-08T05:40:28.487Z,55
2017-04-08T05:41:09.370Z,55
2017-04-08T05:41:50.263Z,60
2017-04-08T05:42:31.142Z,60
2017-04-08T05:43:12.021Z,65
2017-04-08T05:43:52.903Z,65
2017-04-08T05:44:33.789Z,65
2017-04-08T05:45:14.676Z,65
2017-04-08T05:45:55.554Z,65
2017-04-08T05:46:36.436Z,65
2017-04-08T05:47:17.311Z,60
2017-04-08T05:47:58.203Z,65
2017-04-08T05:48:39.085Z,65
2017-04-08T05:49:19.961Z,65
2017-04-08T05:50:00.842Z,60
2017-04-08T05:50:41.730Z,65
2017-04-08T05:51:22.605Z,70
2017-04-08T05:52:03.485Z,70
2017-04-08T05:52:44.367Z,75
2017-04-08T05:53:25.244Z,70
2017-04-08T05:54:06.129Z,70
2017-04-08T05:54:47.010Z,65
2017-04-08T05:55:27.887Z,75
2017-04-08T05:56:08.768Z,75
2017-04-08T05:56:49.653Z,85
2017-04-08T05:57:30.541Z,90
2017-04-08T05:58:11.417Z,100
2017-04-08T05:58:52.297Z,100
2017-04-08T05:59:33.180Z,95
2017-04-08T06:00:14.061Z,90
2017-04-08T06:00:54.943Z,90
2017-04-08T06:01:35.817Z,85
2017-04-08T06:02:16.703Z,85
2017-04-08T06:02:57.591Z,95
2017-04-08T06:03:38.475Z,95
2017-04-08T06:04:19.356Z,90
2017-04-08T06:05:00.237Z,85
2017-04-08T06:05:41.120Z,80
2017-04-08T06:06:22.026Z,75
2017-04-08T06:07:02.896Z,70
2017-04-08T06:07:43.776Z,70
2017-04-08T06:08:24.664Z,75
2017-04-08T06:09:05.541Z,80
2017-04-08T06:09:46.422Z,80
2017-04-08T06:10:27.301Z,80
2017-04-08T06:11:08.189Z,80
2017-04-08T06:11:49.075Z,80
2017-04-08T06:12:29.961Z,75
2017-04-08T06:13:10.841Z,80
2017-04-08T06:13:51.726Z,80
2017-04-08T06:14:32.609Z,75
2017-04-08T06:15:13.492Z,85
2017-04-08T06:15:54.375Z,85
2017-04-08T06:16:35.259Z,85
2017-04-08T06:17:16.143Z,80
2017-04-08T06:17:57.026Z,90
2017-04-08T06:18:37.905Z,90
2017-04-08T06:19:18.792Z,100
2017-04-08T06:19:59.695Z,100
2017-04-08T06:20:40.581Z,110
2017-04-08T06:21:21.466Z,140
2017-04-08T06:22:02.358Z,130
2017-04-08T06:22:43.240Z,95
2017-04-08T06:23:24.112Z,95
2017-04-08T06:24:04.999Z,115
2017-04-08T06:24:45.876Z,130
2017-04-08T06:25:26.755Z,115
2017-04-08T06:26:07.644Z,95
2017-04-08T06:26:48.532Z,90
2017-04-08T06:27:29.425Z,85
2017-04-08T06:28:10.303Z,85
2017-04-08T06:28:51.184Z,75
2017-04-08T06:29:32.070Z,70
2017-04-08T06:30:12.955Z,80
2017-04-08T06:30:53.836Z,90
2017-04-08T06:31:34.716Z,95
2017-04-08T06:32:15.601Z,105
2017-04-08T06:32:56.485Z,90
2017-04-08T06:33:37.366Z,85
2017-04-08T06:34:18.296Z,85
2017-04-08T06:34:59.177Z,85
2017-04-08T06:35:40.062Z,95
2017-04-08T06:36:20.954Z,105
2017-04-08T06:37:01.832Z,95
2017-04-08T06:37:42.711Z,100
2017-04-08T06:38:23.595Z,115
2017-04-08T06:39:04.476Z,115
2017-04-08T06:39:45.357Z,110
2017-04-08T06:41:54.392Z,160
2017-04-08T06:42:35.273Z,130
2017-04-08T06:43:16.171Z,135
2017-04-08T06:43:57.058Z,160
2017-04-08T06:44:37.941Z,160
2017-04-08T06:45:18.830Z,185
2017-04-08T06:45:59.712Z,200
2017-04-08T06:46:40.583Z,185
2017-04-08T06:47:21.455Z,160
2017-04-08T06:48:02.336Z,165
2017-04-08T06:48:43.223Z,180
2017-04-08T06:49:24.123Z,220
2017-04-08T06:50:05.010Z,265
2017-04-08T06:50:45.895Z,265
2017-04-08T06:51:26.769Z,145
2017-04-08T06:52:07.646Z,165
2017-04-08T06:52:48.525Z,150
2017-04-08T06:53:29.406Z,185
2017-04-08T06:54:10.286Z,220
2017-04-08T06:54:51.174Z,225
2017-04-08T06:55:32.046Z,240
2017-04-08T06:56:12.925Z,200
2017-04-08T06:56:53.806Z,170
2017-04-08T06:57:34.702Z,160
2017-04-08T06:58:15.581Z,150
2017-04-08T06:58:56.460Z,220
2017-04-08T06:59:37.340Z,280
2017-04-08T07:00:18.258Z,245
2017-04-08T07:00:59.112Z,205
2017-04-08T07:01:39.994Z,180
2017-04-08T07:03:54.118Z,180
2017-04-08T07:04:35.014Z,175
2017-04-08T07:05:15.898Z,165
2017-04-08T07:07:35.161Z,200
2017-04-08T07:08:16.048Z,215
2017-04-08T07:08:56.927Z,210
2017-04-08T07:09:37.812Z,195
2017-04-08T07:10:18.689Z,190
2017-04-08T07:10:59.572Z,205
2017-04-08T07:11:40.458Z,210
2017-04-08T07:12:21.340Z,185
2017-04-08T07:13:02.228Z,175
2017-04-08T07:13:43.105Z,180
2017-04-08T07:14:23.976Z,175
2017-04-08T07:15:04.861Z,190
2017-04-08T07:15:45.736Z,240
2017-04-08T07:16:26.617Z,215
2017-04-08T07:17:07.502Z,175
2017-04-08T07:17:48.381Z,175
2017-04-08T07:18:29.258Z,180
2017-04-08T07:19:10.133Z,165
2017-04-08T07:19:51.019Z,170
2017-04-08T07:20:31.902Z,205
2017-04-08T07:21:12.795Z,205
2017-04-08T07:21:53.677Z,180
2017-04-08T07:22:34.579Z,255
2017-04-08T07:23:15.449Z,295
2017-04-08T07:23:56.337Z,310
2017-04-08T07:24:37.218Z,360
2017-04-08T07:25:18.101Z,340
2017-04-08T07:25:58.981Z,225
2017-04-08T07:26:39.860Z,160
2017-04-08T07:27:20.744Z,185
2017-04-08T07:28:01.626Z,280
2017-04-08T07:28:42.511Z,290
2017-04-08T07:29:23.388Z,220
2017-04-08T07:30:04.277Z,165
2017-04-08T07:30:45.153Z,185
2017-04-08T07:31:26.051Z,205
2017-04-08T07:32:06.936Z,170
2017-04-08T07:32:47.823Z,145
2017-04-08T07:33:28.697Z,135
2017-04-08T07:34:09.578Z,160
2017-04-08T07:34:50.459Z,190
2017-04-08T07:35:31.346Z,265
2017-04-08T07:36:12.233Z,380
2017-04-08T07:36:53.115Z,470
2017-04-08T07:37:33.985Z,465
2017-04-08T07:38:14.864Z,330
2017-04-08T07:38:55.750Z,270
2017-04-08T07:39:36.643Z,340
2017-04-08T07:40:17.525Z,420
2017-04-08T07:40:58.412Z,420
2017-04-08T07:41:39.292Z,325
2017-04-08T07:42:20.174Z,240
2017-04-08T07:43:01.057Z,225
2017-04-08T07:43:41.940Z,220
2017-04-08T07:44:22.826Z,270
2017-04-08T07:45:03.720Z,415
2017-04-08T07:45:44.609Z,490
2017-04-08T07:46:25.502Z,475
2017-04-08T07:47:06.413Z,420
2017-04-08T07:47:47.276Z,335
2017-04-08T07:48:28.171Z,270
2017-04-08T07:49:09.028Z,205
2017-04-08T07:49:49.917Z,190
2017-04-08T07:50:30.844Z,190
2017-04-08T07:51:11.729Z,225
2017-04-08T07:51:52.607Z,380
2017-04-08T07:52:33.502Z,445
2017-04-08T07:53:14.390Z,320
2017-04-08T07:53:55.277Z,235
2017-04-08T07:54:36.155Z,210
2017-04-08T07:55:17.037Z,225
2017-04-08T07:55:57.923Z,250
2017-04-08T07:56:38.881Z,270
2017-04-08T07:57:19.766Z,240
2017-04-08T07:58:00.655Z,210
2017-04-08T07:58:41.538Z,200
2017-04-08T07:59:22.414Z,180
2017-04-08T08:00:03.294Z,230
2017-04-08T08:00:44.181Z,315
2017-04-08T08:01:25.065Z,315
2017-04-08T08:02:05.950Z,230
2017-04-08T08:02:46.827Z,195
2017-04-08T08:03:27.721Z,240
2017-04-08T08:04:08.597Z,230
2017-04-08T08:08:10.603Z,325
2017-04-08T08:08:58.410Z,345
2017-04-08T08:09:39.292Z,270
2017-04-08T08:10:20.170Z,195
2017-04-08T08:11:01.052Z,255
2017-04-08T08:11:41.938Z,295
2017-04-08T08:12:22.817Z,345
2017-04-08T08:14:41.737Z,375
2017-04-08T08:15:22.625Z,365
2017-04-08T08:16:03.503Z,310
2017-04-08T08:16:44.387Z,310
2017-04-08T08:17:25.279Z,270
2017-04-08T08:18:06.162Z,240
2017-04-08T08:18:47.046Z,220
2017-04-08T08:19:27.934Z,235
2017-04-08T08:20:08.827Z,275
2017-04-08T08:20:49.715Z,360
2017-04-08T08:23:08.590Z,240
2017-04-08T08:23:49.478Z,270
2017-04-08T08:24:30.370Z,290
2017-04-08T08:25:11.247Z,335
2017-04-08T08:25:52.136Z,220
2017-04-08T08:26:33.032Z,275
2017-04-08T08:28:51.968Z,430
2017-04-08T08:29:39.397Z,550
2017-04-08T08:30:20.320Z,660
2017-04-08T08:31:01.212Z,720
2017-04-08T08:31:42.101Z,605
2017-04-08T08:32:22.992Z,700
2017-04-08T08:33:03.888Z,765
2017-04-08T08:33:44.773Z,715
2017-04-08T08:34:25.654Z,700
2017-04-08T08:35:06.537Z,595
2017-04-08T08:35:47.429Z,585
2017-04-08T08:36:28.320Z,560
2017-04-08T08:37:09.198Z,510
2017-04-08T08:37:50.081Z,490
2017-04-08T08:38:30.964Z,560
2017-04-08T08:39:11.832Z,545
2017-04-08T08:39:52.712Z,430
2017-04-08T08:40:33.589Z,450
2017-04-08T08:41:14.468Z,720
2017-04-08T08:41:55.351Z,720
2017-04-08T08:42:36.236Z,435
2017-04-08T08:43:17.118Z,355
2017-04-08T08:43:58.009Z,330
2017-04-08T08:44:38.892Z,325
2017-04-08T08:45:19.772Z,390
2017-04-08T08:46:00.655Z,425
2017-04-08T08:46:41.539Z,460
2017-04-08T08:47:22.424Z,480
2017-04-08T08:48:03.307Z,725
2017-04-08T08:48:44.196Z,785
2017-04-08T08:49:25.085Z,590
2017-04-08T08:50:05.968Z,440
2017-04-08T08:50:46.863Z,420
2017-04-08T08:51:27.768Z,405
2017-04-08T08:52:08.650Z,435
2017-04-08T08:52:49.540Z,560
2017-04-08T08:53:30.426Z,1655
2017-04-08T08:54:11.345Z,1260
2017-04-08T08:54:52.231Z,610
2017-04-08T08:55:33.120Z,580
2017-04-08T08:56:14.008Z,625
2017-04-08T08:56:54.889Z,525
2017-04-08T08:57:35.776Z,545
2017-04-08T08:58:16.664Z,520
2017-04-08T08:58:57.609Z,540
2017-04-08T08:59:38.496Z,505
2017-04-08T09:00:19.384Z,515
2017-04-08T09:01:00.271Z,615
2017-04-08T09:01:41.164Z,490
2017-04-08T09:02:22.048Z,430
2017-04-08T09:03:02.969Z,425
2017-04-08T09:03:43.835Z,515
2017-04-08T09:04:24.716Z,745
2017-04-08T09:05:05.619Z,580
2017-04-08T09:05:46.498Z,575
2017-04-08T09:06:27.390Z,670
2017-04-08T09:07:08.267Z,480
2017-04-08T09:07:49.156Z,525
2017-04-08T09:08:30.041Z,585
2017-04-08T09:09:10.932Z,410
2017-04-08T09:09:51.826Z,380
2017-04-08T09:10:32.714Z,410
2017-04-08T09:11:13.598Z,465
2017-04-08T09:11:54.468Z,485
2017-04-08T09:12:35.361Z,660
2017-04-08T09:13:16.260Z,640
2017-04-08T09:13:57.150Z,470
2017-04-08T09:14:38.043Z,430
2017-04-08T09:15:18.927Z,460
2017-04-08T09:15:59.814Z,435
2017-04-08T09:16:40.699Z,355
2017-04-08T09:17:21.594Z,310
2017-04-08T09:18:02.498Z,420
2017-04-08T09:18:43.390Z,465
2017-04-08T09:19:24.305Z,390
2017-04-08T09:20:05.227Z,300
2017-04-08T09:20:46.086Z,275
2017-04-08T09:21:26.971Z,295
2017-04-08T09:22:07.855Z,325
2017-04-08T09:22:48.742Z,295
2017-04-08T09:23:29.626Z,295
2017-04-08T09:24:10.535Z,290
2017-04-08T09:24:51.423Z,300
2017-04-08T09:25:32.308Z,290
2017-04-08T09:26:13.188Z,325
2017-04-08T09:26:54.075Z,445
2017-04-08T09:27:34.964Z,470
2017-04-08T09:28:15.848Z,500
2017-04-08T09:28:56.770Z,1570
2017-04-08T09:29:37.641Z,385
2017-04-08T09:30:18.515Z,360
2017-04-08T09:30:59.399Z,345
2017-04-08T09:31:40.283Z,335
2017-04-08T09:32:21.176Z,430
2017-04-08T09:33:02.064Z,460
2017-04-08T09:33:42.940Z,680
2017-04-08T09:34:23.831Z,1305
2017-04-08T09:35:04.718Z,655
2017-04-08T09:35:45.615Z,2835
2017-04-08T09:36:26.503Z,1345
2017-04-08T09:37:07.394Z,2130
2017-04-08T09:37:48.278Z,970
2017-04-08T09:38:29.162Z,590
2017-04-08T09:39:10.047Z,480
2017-04-08T09:39:50.932Z,530
2017-04-08T09:40:31.855Z,440
2017-04-08T09:41:12.732Z,410
2017-04-08T09:41:53.648Z,420
2017-04-08T09:42:34.543Z,420
2017-04-08T09:43:15.421Z,420
2017-04-08T09:43:56.312Z,425
2017-04-08T09:44:37.195Z,300
2017-04-08T09:45:18.076Z,280
2017-04-08T09:45:58.957Z,290
2017-04-08T09:46:39.844Z,285
2017-04-08T09:47:20.728Z,295
2017-04-08T09:48:01.612Z,385
2017-04-08T09:48:42.500Z,390
2017-04-08T09:49:23.382Z,355
2017-04-08T09:50:04.274Z,345
2017-04-08T09:50:45.159Z,410
2017-04-08T09:51:26.040Z,555
2017-04-08T09:52:06.928Z,390
2017-04-08T09:52:47.820Z,410
2017-04-08T09:53:28.697Z,390
2017-04-08T09:54:09.581Z,465
2017-04-08T09:54:50.470Z,600
2017-04-08T09:55:31.358Z,480
2017-04-08T09:56:12.237Z,2545
2017-04-08T09:56:53.120Z,2450
2017-04-08T09:57:34.005Z,2465
2017-04-08T09:58:14.896Z,2190
2017-04-08T09:58:55.782Z,990